Time;durP1;ratioP1;P1;durP2;ratioP2;P2;SDS_P1;SDS_P2;PMS_P1;PMS_P2;Temp;Humidity;BMP_temperature;BMP_pressure;BME280_temperature;BME280_humidity;BME280_pressure;Samples;Min_cycle;Max_cycle;Signal;HPM_P1;HPM_P2
2022/06/05 00:03:53;;;;;;;15.98;11.40;;;;;;;14.25;93.55;101030.39;3623324;81;99595;-85
2022/06/05 00:09:12;;;;;;;14.50;10.95;;;;;;;14.21;94.72;101032.91;3621697;80;99540;-86
2022/06/05 00:14:14;;;;;;;15.85;9.83;;;;;;;14.16;93.88;101020.20;3633995;81;99159;-86
2022/06/05 00:19:15;;;;;;;16.27;10.20;;;;;;;14.09;94.16;101030.44;3621558;80;99038;-85
2022/06/05 00:24:17;;;;;;;14.03;8.95;;;;;;;14.04;93.94;101032.98;3640231;80;31845;-86
2022/06/05 00:29:43;;;;;;;16.23;9.45;;;;;;;13.96;93.06;101027.19;3629049;80;99013;-84
2022/06/05 00:34:44;;;;;;;15.48;9.38;;;;;;;13.91;92.97;101030.31;3625343;81;98749;-84
2022/06/05 00:40:28;;;;;;;14.70;8.80;;;;;;;13.81;93.23;101033.81;3621476;80;98933;-84
2022/06/05 00:45:31;;;;;;;15.48;9.45;;;;;;;13.71;93.37;101036.48;3633393;80;99440;-84
2022/06/05 00:50:34;;;;;;;16.25;9.45;;;;;;;13.62;93.46;101046.49;3628820;80;99405;-84
2022/06/05 00:55:45;;;;;;;13.20;8.93;;;;;;;13.59;93.27;101050.62;3632327;80;99450;-84
2022/06/05 01:00:53;;;;;;;15.13;10.03;;;;;;;13.52;93.27;101049.95;3629479;81;99343;-84
2022/06/05 01:05:54;;;;;;;15.32;9.68;;;;;;;13.45;93.06;101055.43;3639220;80;31747;-84
2022/06/05 01:11:09;;;;;;;15.17;10.33;;;;;;;13.36;93.98;101051.39;3617817;80;99068;-84
2022/06/05 01:16:24;;;;;;;14.28;8.88;;;;;;;13.27;94.04;101053.09;3620526;80;99080;-84
2022/06/05 01:21:58;;;;;;;15.72;9.83;;;;;;;13.14;94.21;101052.36;3634907;80;99294;-84
2022/06/05 01:27:04;;;;;;;16.77;10.75;;;;;;;13.06;94.84;101046.53;3627833;81;99590;-84
2022/06/05 01:32:48;;;;;;;15.20;10.03;;;;;;;12.99;94.51;101048.65;3634758;81;99726;-83
2022/06/05 01:37:55;;;;;;;15.70;9.70;;;;;;;12.95;94.77;101045.59;3624228;80;99140;-83
2022/06/05 01:43:02;;;;;;;;;;;;;;;12.89;94.78;101053.44;3637515;80;99623;-83
2022/06/05 01:48:05;;;;;;;;;;;;;;;12.82;96.94;101047.80;3621872;80;84729;-83
2022/06/05 01:53:12;;;;;;;15.20;9.03;;;;;;;12.78;96.28;101049.75;3637721;80;84921;-83
2022/06/05 01:58:17;;;;;;;16.52;10.48;;;;;;;12.73;95.06;101044.56;3628539;80;98884;-84
2022/06/05 02:03:32;;;;;;;18.25;10.03;;;;;;;12.69;94.99;101050.62;3616692;80;99184;-83
2022/06/05 02:08:44;;;;;;;14.98;9.23;;;;;;;12.64;97.69;101040.50;3622691;81;99219;-83
2022/06/05 02:13:46;;;;;;;19.32;11.35;;;;;;;12.60;96.17;101041.03;3610116;80;99440;-83
2022/06/05 02:18:47;;;;;;;18.10;10.90;;;;;;;12.55;95.90;101050.45;3623922;81;99239;-84
2022/06/05 02:23:48;;;;;;;17.27;10.58;;;;;;;12.53;95.37;101057.52;3632629;80;32320;-83
2022/06/05 02:28:49;;;;;;;17.10;9.70;;;;;;;12.50;95.57;101059.64;3623407;80;99220;-84
2022/06/05 02:34:08;;;;;;;16.70;10.67;;;;;;;12.46;95.11;101069.26;3612910;81;99050;-84
2022/06/05 02:39:43;;;;;;;19.37;10.53;;;;;;;12.43;95.77;101069.22;3624760;79;99209;-84
2022/06/05 02:45:27;;;;;;;17.10;10.75;;;;;;;12.37;95.25;101068.73;3610369;81;99192;-83
2022/06/05 02:50:43;;;;;;;21.20;11.95;;;;;;;12.36;94.64;101076.80;3620063;80;99489;-84
2022/06/05 02:55:44;;;;;;;16.90;11.20;;;;;;;12.32;94.84;101078.70;3627570;80;99447;-84
2022/06/05 03:03:27;;;;;;;19.13;11.87;;;;;;;12.26;95.40;101069.77;3624443;80;99143;-84
2022/06/05 03:05:48;;;;;;;17.37;10.70;;;;;;;12.23;95.31;101077.39;3634415;80;31692;-85
2022/06/05 03:10:49;;;;;;;19.17;11.47;;;;;;;12.15;95.57;101082.01;3619073;81;99005;-84
2022/06/05 03:15:50;;;;;;;19.47;11.10;;;;;;;12.10;95.99;101090.60;3615994;81;99112;-85
2022/06/05 03:20:57;;;;;;;21.97;11.97;;;;;;;12.06;95.96;101095.86;3640691;80;99187;-85
2022/06/05 03:25:59;;;;;;;19.67;11.48;;;;;;;12.03;95.95;101091.07;3625272;80;99217;-84
2022/06/05 03:31:07;;;;;;;18.75;10.50;;;;;;;11.88;96.55;101074.11;3631242;79;99675;-84
2022/06/05 03:36:15;;;;;;;18.30;11.12;;;;;;;12.01;95.65;101097.55;3625893;80;32111;-84
2022/06/05 03:41:17;;;;;;;20.90;11.45;;;;;;;11.88;96.48;101071.34;3632297;80;98996;-85
2022/06/05 03:46:18;;;;;;;19.25;13.08;;;;;;;12.00;96.91;101100.88;3634665;81;99387;-84
2022/06/05 03:51:22;;;;;;;20.53;12.37;;;;;;;12.03;96.62;101107.05;3639517;80;99682;-84
2022/06/05 03:56:26;;;;;;;18.45;12.45;;;;;;;12.08;98.12;101105.36;3612554;81;99520;-85
2022/06/05 04:01:27;;;;;;;20.05;11.57;;;;;;;12.11;97.35;101109.34;3627129;80;99151;-84
2022/06/05 04:06:31;;;;;;;19.57;13.05;;;;;;;12.16;97.31;101107.66;3616385;80;99259;-85
2022/06/05 04:11:34;;;;;;;23.22;12.45;;;;;;;12.18;97.29;101115.77;3639596;80;98956;-84
2022/06/05 04:16:39;;;;;;;19.63;11.60;;;;;;;12.16;98.11;101104.89;3625313;81;99234;-85
2022/06/05 04:21:44;;;;;;;19.35;11.70;;;;;;;12.18;96.85;101097.03;3632142;80;99183;-85
2022/06/05 04:26:45;;;;;;;19.05;11.15;;;;;;;12.18;96.85;101097.03;3612168;81;99149;-85
2022/06/05 04:31:47;;;;;;;18.13;11.57;;;;;;;12.35;96.15;101119.38;3632833;81;99264;-84
2022/06/05 04:36:49;;;;;;;19.15;11.03;;;;;;;12.40;95.71;101116.30;3624246;80;99156;-86
2022/06/05 04:41:50;;;;;;;16.10;10.13;;;;;;;12.37;95.28;101100.47;3634923;81;26888;-85
2022/06/05 04:46:54;;;;;;;18.73;10.80;;;;;;;12.54;94.88;101121.23;3626803;81;99338;-85
2022/06/05 04:51:55;;;;;;;17.35;10.08;;;;;;;12.65;94.43;101120.19;3637916;80;99213;-86
2022/06/05 04:56:56;;;;;;;15.40;9.30;;;;;;;12.80;94.56;101128.11;3628893;80;99144;-85
2022/06/05 05:01:57;;;;;;;14.77;9.50;;;;;;;12.94;94.18;101131.84;3620417;80;98976;-86
2022/06/05 05:06:58;;;;;;;16.33;9.00;;;;;;;13.09;93.08;101127.31;3608094;81;99245;-86
2022/06/05 05:11:59;;;;;;;15.47;8.27;;;;;;;13.27;92.38;101132.45;3602666;80;25975;-86
2022/06/05 05:17:01;;;;;;;13.80;8.00;;;;;;;13.41;91.71;101126.48;3618203;81;99201;-87
2022/06/05 05:22:03;;;;;;;16.53;8.77;;;;;;;13.62;91.60;101122.56;3607916;80;98851;-87
2022/06/05 05:27:04;;;;;;;12.15;7.35;;;;;;;14.04;91.71;101123.52;3595128;81;99735;-86
2022/06/05 05:32:07;;;;;;;12.70;7.30;;;;;;;14.54;91.36;101135.98;3594829;80;99476;-87
2022/06/05 05:37:08;;;;;;;11.90;7.53;;;;;;;15.13;90.67;101127.77;3612366;80;99373;-88
2022/06/05 05:42:12;;;;;;;11.43;6.33;;;;;;;15.78;88.84;101131.93;3605202;80;29792;-87
2022/06/05 05:47:21;;;;;;;13.50;6.83;;;;;;;16.49;87.41;101128.55;3595834;80;99233;-89
2022/06/05 05:52:24;;;;;;;10.03;5.75;;;;;;;17.21;86.93;101119.77;3597229;80;99105;-88
2022/06/05 05:57:26;;;;;;;12.82;6.22;;;;;;;17.69;80.41;101119.91;3604253;80;99279;-90
2022/06/05 06:02:27;;;;;;;11.90;6.67;;;;;;;18.09;80.15;101124.80;3603434;80;99041;-92
2022/06/05 06:07:28;;;;;;;10.82;6.40;;;;;;;18.82;79.98;101119.10;3593416;81;99105;-91
2022/06/05 06:12:30;;;;;;;10.28;5.45;;;;;;;19.14;75.69;101109.74;3606776;80;31653;-91
2022/06/05 06:17:31;;;;;;;9.18;5.20;;;;;;;19.30;72.50;101107.16;3599614;81;99139;-92
2022/06/05 06:22:35;;;;;;;7.65;4.85;;;;;;;19.54;67.53;101102.63;3610953;81;99015;-90
2022/06/05 06:27:35;;;;;;;8.43;4.97;;;;;;;20.14;72.98;101098.30;3604744;80;99076;-87
2022/06/05 06:32:37;;;;;;;8.70;4.58;;;;;;;20.85;73.10;101098.55;3602288;81;99206;-90
2022/06/05 06:37:38;;;;;;;10.20;5.15;;;;;;;21.45;69.35;101101.47;3601767;80;98988;-90
2022/06/05 06:42:38;;;;;;;8.83;5.10;;;;;;;21.92;63.41;101109.20;3612135;81;99300;-89
2022/06/05 06:47:40;;;;;;;8.53;4.80;;;;;;;22.15;66.11;101102.61;3606795;81;98830;-90
2022/06/05 06:52:41;;;;;;;9.38;4.62;;;;;;;22.69;64.87;101095.97;3626811;80;99001;-89
2022/06/05 06:57:45;;;;;;;7.70;4.40;;;;;;;22.74;61.83;101094.03;3613210;81;99275;-89
2022/06/05 07:02:46;;;;;;;6.90;4.03;;;;;;;23.08;59.44;101090.63;3612401;81;99325;-87
2022/06/05 07:07:47;;;;;;;7.25;4.17;;;;;;;23.40;60.92;101091.89;3605816;80;98883;-87
2022/06/05 07:12:48;;;;;;;14.85;5.20;;;;;;;23.97;56.04;101093.09;3617577;81;98913;-86
2022/06/05 07:17:49;;;;;;;6.40;3.95;;;;;;;23.29;57.28;101092.23;3612102;81;99284;-87
2022/06/05 07:22:50;;;;;;;7.60;4.37;;;;;;;23.05;55.36;101096.52;3578658;80;99059;-87
2022/06/05 07:27:51;;;;;;;5.17;3.15;;;;;;;22.88;53.92;101098.45;3570825;81;99198;-86
2022/06/05 07:32:54;;;;;;;9.60;3.47;;;;;;;23.11;52.52;101096.77;3603944;81;99215;-88
2022/06/05 07:37:55;;;;;;;5.40;3.05;;;;;;;23.93;54.72;101103.67;3572078;80;99200;-88
2022/06/05 07:42:55;;;;;;;7.17;3.55;;;;;;;24.35;50.03;101074.11;3606171;81;99209;-88
2022/06/05 07:47:57;;;;;;;7.53;3.95;;;;;;;24.70;48.83;101097.58;3593611;81;98553;-87
2022/06/05 07:58:17;;;;;;;6.67;3.60;;;;;;;25.63;48.88;101102.88;3605058;80;98980;-84
2022/06/05 08:03:19;;;;;;;6.53;3.17;;;;;;;25.89;46.76;101097.15;3604346;81;99324;-86
2022/06/05 08:08:20;;;;;;;6.35;3.40;;;;;;;26.09;46.48;101104.61;3605924;80;99101;-85
2022/06/05 08:13:21;;;;;;;6.05;3.25;;;;;;;26.86;47.84;101100.47;3608666;81;99228;-85
2022/06/05 08:18:22;;;;;;;5.30;2.80;;;;;;;27.51;45.79;101090.77;3607379;81;99069;-84
2022/06/05 08:23:23;;;;;;;5.00;2.52;;;;;;;27.93;43.54;101090.11;3609607;80;99098;-84
2022/06/05 08:28:25;;;;;;;5.17;2.98;;;;;;;28.03;41.65;101085.97;3614265;81;99054;-84
2022/06/05 08:33:26;;;;;;;6.10;2.80;;;;;;;28.04;39.81;101088.33;3600095;81;98794;-84
2022/06/05 08:44:15;;;;;;;5.67;2.95;;;;;;;28.58;37.24;101082.93;3604890;81;99312;-85
2022/06/05 08:49:38;;;;;;;5.85;2.95;;;;;;;28.79;36.52;101074.09;3584811;80;99176;-87
2022/06/05 08:54:44;;;;;;;6.00;3.10;;;;;;;28.84;35.49;101067.75;3562117;81;99116;-83
2022/06/05 08:59:53;;;;;;;7.67;3.20;;;;;;;29.15;38.24;101050.30;3597756;80;98496;-85
2022/06/05 09:05:06;;;;;;;5.53;2.83;;;;;;;29.24;37.22;101044.50;3604346;80;99338;-83
2022/06/05 09:10:15;;;;;;;5.42;2.65;;;;;;;29.48;36.92;101036.66;3563925;81;98969;-84
2022/06/05 09:15:39;;;;;;;6.28;3.20;;;;;;;30.19;38.01;101029.85;3555508;81;99181;-85
2022/06/05 09:20:55;;;;;;;5.90;3.22;;;;;;;30.82;35.36;101026.72;3568591;81;99156;-84
2022/06/05 09:26:21;;;;;;;6.08;3.35;;;;;;;31.81;36.78;101032.48;3557216;81;98811;-83
2022/06/05 09:31:33;;;;;;;5.75;3.12;;;;;;;31.63;32.29;101035.68;3531242;81;99160;-81
2022/06/05 09:36:34;;;;;;;5.67;3.40;;;;;;;30.75;34.55;101034.91;3506853;83;98903;-81
2022/06/05 09:41:53;;;;;;;5.62;3.10;;;;;;;29.98;31.99;101040.41;3518136;82;98650;-82
2022/06/05 09:47:04;;;;;;;5.03;3.02;;;;;;;29.75;32.65;101032.83;3536767;81;98985;-82
2022/06/05 09:52:19;;;;;;;5.78;3.17;;;;;;;29.85;35.43;101026.41;3544284;81;99070;-82
2022/06/05 10:03:08;;;;;;;8.28;3.85;;;;;;;29.47;34.79;101023.75;3553195;81;98838;-79
2022/06/05 10:08:19;;;;;;;5.80;4.05;;;;;;;29.69;36.05;101020.63;3508447;81;99299;-82
2022/06/05 10:13:50;;;;;;;4.42;3.27;;;;;;;31.27;36.76;101003.75;3520870;81;99161;-82
2022/06/05 10:19:14;;;;;;;6.00;3.77;;;;;;;32.84;35.15;101007.11;3526918;81;98904;-81
2022/06/05 10:24:33;;;;;;;5.00;3.55;;;;;;;33.04;30.85;101006.87;3555184;81;25829;-83
2022/06/05 10:29:38;;;;;;;6.30;3.87;;;;;;;32.92;32.43;101015.27;3548599;81;99021;-82
2022/06/05 10:35:08;;;;;;;7.10;4.45;;;;;;;33.53;33.46;100995.30;3544979;81;98963;-85
2022/06/05 10:40:26;;;;;;;5.70;3.75;;;;;;;32.89;30.39;100989.23;3542825;81;98761;-82
2022/06/05 10:45:53;;;;;;;8.48;4.65;;;;;;;32.11;32.25;100983.81;3571678;81;99044;-81
2022/06/05 10:51:05;;;;;;;6.72;3.67;;;;;;;33.35;32.39;100972.37;3506281;82;99077;-82
2022/06/05 10:56:37;;;;;;;6.80;3.83;;;;;;;33.08;31.38;100977.42;3570752;81;98828;-82
2022/06/05 11:02:20;;;;;;;5.78;3.40;;;;;;;33.22;31.73;100976.39;3570662;81;98924;-82
2022/06/05 11:07:38;;;;;;;7.22;3.70;;;;;;;33.44;31.43;100969.25;3538178;81;98829;-82
2022/06/05 11:18:43;;;;;;;6.20;3.37;;;;;;;34.10;31.55;100966.19;3547288;81;98969;-82
2022/06/05 11:23:49;;;;;;;6.75;3.60;;;;;;;34.45;30.05;100968.37;3533035;81;98444;-82
2022/06/05 11:29:16;;;;;;;7.67;3.77;;;;;;;34.16;28.40;100959.03;3580522;80;98689;-81
2022/06/05 11:34:37;;;;;;;5.37;3.50;;;;;;;33.31;29.27;100951.11;3615151;80;98659;-82
2022/06/05 11:39:58;;;;;;;4.80;3.52;;;;;;;33.95;30.89;100940.02;3593365;80;98882;-81
2022/06/05 11:45:08;;;;;;;6.15;3.70;;;;;;;33.34;30.14;100922.30;3598224;80;99113;-82
2022/06/05 11:50:26;;;;;;;5.55;3.90;;;;;;;33.47;31.20;100924.61;3602410;80;99142;-81
2022/06/05 11:55:56;;;;;;;7.10;3.58;;;;;;;34.16;31.36;100925.50;3609836;80;99201;-80
2022/06/05 12:01:20;;;;;;;7.10;3.75;;;;;;;33.74;30.69;100920.89;3621089;80;98850;-81
2022/06/05 12:06:39;;;;;;;7.35;3.58;;;;;;;33.58;31.09;100901.10;3618678;80;98789;-81
2022/06/05 12:12:13;;;;;;;6.62;3.72;;;;;;;33.83;30.17;100897.11;3514536;82;98539;-80
2022/06/05 12:17:43;;;;;;;8.03;4.53;;;;;;;33.71;29.78;100882.73;3569578;80;98799;-81
2022/06/05 12:22:58;;;;;;;6.25;3.83;;;;;;;33.16;30.28;100870.05;3499211;83;99079;-81
2022/06/05 12:28:23;;;;;;;6.22;4.47;;;;;;;33.32;31.45;100869.27;3550653;80;99061;-81
2022/06/05 12:33:50;;;;;;;6.25;3.90;;;;;;;33.33;29.69;100861.46;3630948;80;98921;-81
2022/06/05 12:38:59;;;;;;;7.92;4.20;;;;;;;33.21;30.76;100876.40;3610965;80;99223;-81
2022/06/05 12:44:24;;;;;;;7.85;4.55;;;;;;;33.29;29.59;100854.61;3613690;80;98818;-81
2022/06/05 12:49:55;;;;;;;6.95;4.12;;;;;;;33.04;30.37;100852.84;3584798;80;98932;-80
2022/06/05 12:55:13;;;;;;;6.33;3.50;;;;;;;33.30;30.83;100852.55;3617573;80;98859;-81
2022/06/05 13:00:36;;;;;;;7.97;4.10;;;;;;;33.80;31.93;100838.85;3614874;80;98646;-82
2022/06/05 13:05:42;;;;;;;7.03;3.87;;;;;;;33.33;30.32;100825.16;3603420;80;98875;-81
2022/06/05 13:11:09;;;;;;;6.75;3.60;;;;;;;32.77;31.75;100823.73;3610885;80;98697;-81
2022/06/05 13:16:40;;;;;;;6.62;4.10;;;;;;;32.84;31.53;100816.06;3598755;80;99071;-81
2022/06/05 13:21:49;;;;;;;8.78;4.60;;;;;;;32.19;31.15;100813.31;3593510;81;98921;-81
2022/06/05 13:27:40;;;;;;;6.33;3.90;;;;;;;32.54;32.74;100804.28;3585987;80;98932;-81
2022/06/05 13:33:07;;;;;;;6.15;3.65;;;;;;;32.86;32.02;100802.72;3588180;80;98873;-81
2022/06/05 13:38:29;;;;;;;7.67;4.42;;;;;;;32.73;31.97;100795.30;3590072;80;99062;-81
2022/06/05 13:43:38;;;;;;;5.47;3.87;;;;;;;32.63;31.93;100803.36;3577711;81;98885;-81
2022/06/05 13:48:56;;;;;;;6.17;3.47;;;;;;;32.35;31.95;100791.20;3595654;80;98987;-81
2022/06/05 13:54:12;;;;;;;6.55;4.08;;;;;;;31.90;31.98;100792.45;3595739;81;98510;-81
2022/06/05 13:59:27;;;;;;;5.80;3.50;;;;;;;32.07;32.77;100781.06;3599877;81;98975;-80
2022/06/05 14:04:28;;;;;;;7.58;4.17;;;;;;;32.34;33.61;100778.89;3574974;81;99143;-81
2022/06/05 14:09:43;;;;;;;6.22;4.47;;;;;;;31.64;31.70;100781.09;3597635;81;98739;-81
2022/06/05 14:14:46;;;;;;;6.08;3.90;;;;;;;31.01;32.30;100777.70;3605319;81;98738;-80
2022/06/05 14:20:00;;;;;;;8.40;3.83;;;;;;;30.61;33.01;100765.17;3596078;80;99017;-81
2022/06/05 14:25:01;;;;;;;7.17;3.83;;;;;;;30.30;34.17;100763.78;3612549;80;98864;-81
2022/06/05 14:30:17;;;;;;;5.55;3.60;;;;;;;30.50;33.11;100745.21;3530647;81;98708;-80
2022/06/05 14:35:24;;;;;;;6.33;4.17;;;;;;;30.50;33.11;100745.21;3565603;81;98884;-81
2022/06/05 14:40:48;;;;;;;8.43;4.15;;;;;;;30.28;32.74;100737.95;3550943;80;98736;-81
2022/06/05 14:46:35;;;;;;;5.87;3.60;;;;;;;29.81;32.85;100727.19;3557890;80;98815;-81
2022/06/05 14:52:22;;;;;;;6.22;3.22;;;;;;;29.92;34.20;100712.34;3556201;81;99107;-81
2022/06/05 15:02:59;;;;;;;5.67;3.70;;;;;;;29.50;33.77;100705.86;3561567;81;98810;-81
2022/06/05 15:08:05;;;;;;;7.67;4.03;;;;;;;28.69;33.90;100713.45;3568385;81;98834;-80
2022/06/05 15:13:18;;;;;;;5.17;3.47;;;;;;;28.71;34.80;100687.61;3520480;81;99304;-81
2022/06/05 15:18:21;;;;;;;6.22;3.72;;;;;;;28.52;34.84;100682.70;3562593;81;98973;-80
2022/06/05 15:23:33;;;;;;;5.42;3.37;;;;;;;28.06;34.76;100685.33;3557210;81;99123;-81
2022/06/05 15:28:52;;;;;;;6.83;4.47;;;;;;;28.13;35.94;100680.70;3547094;80;98874;-81
2022/06/05 15:34:18;;;;;;;5.12;3.15;;;;;;;27.98;34.89;100662.96;3554128;81;98730;-81
2022/06/05 15:39:42;;;;;;;5.95;3.80;;;;;;;27.66;35.15;100666.77;3530077;81;98835;-80
2022/06/05 15:45:13;;;;;;;5.75;3.47;;;;;;;27.30;35.38;100652.99;3562689;80;98787;-80
2022/06/05 15:50:41;;;;;;;6.87;4.12;;;;;;;26.98;35.66;100650.30;3548187;80;99295;-80
2022/06/05 15:56:06;;;;;;;5.75;3.08;;;;;;;26.92;35.97;100634.63;3560375;81;98877;-79
2022/06/05 16:01:24;;;;;;;6.70;3.17;;;;;;;26.62;35.70;100620.30;3528650;81;99076;-80
2022/06/05 16:06:46;;;;;;;5.90;3.70;;;;;;;26.30;36.04;100611.84;3530187;81;98506;-80
2022/06/05 16:12:20;;;;;;;5.90;3.62;;;;;;;26.06;36.43;100623.14;3530698;81;98664;-81
2022/06/05 16:18:01;;;;;;;4.53;3.05;;;;;;;25.78;35.48;100627.28;3553009;81;98990;-80
2022/06/05 16:23:35;;;;;;;5.33;3.20;;;;;;;25.48;36.01;100633.97;3540542;81;99201;-80
2022/06/05 16:28:47;;;;;;;4.47;3.00;;;;;;;25.21;36.05;100630.38;3552224;80;98791;-81
2022/06/05 16:33:54;;;;;;;7.28;3.22;;;;;;;25.03;35.85;100628.39;3542020;81;98715;-82
2022/06/05 16:38:58;;;;;;;7.80;3.33;;;;;;;25.00;36.15;100629.93;3530015;80;98955;-81
2022/06/05 16:44:02;;;;;;;7.13;3.10;;;;;;;24.96;36.20;100637.78;3550613;81;99266;-80
2022/06/05 16:49:11;;;;;;;4.35;2.75;;;;;;;24.79;36.44;100633.07;3556631;80;99154;-80
2022/06/05 16:54:23;;;;;;;6.55;3.05;;;;;;;24.72;36.48;100624.15;3567274;81;25937;-80
2022/06/05 16:59:31;;;;;;;5.57;3.17;;;;;;;24.54;35.65;100626.31;3555883;81;99113;-80
2022/06/05 17:04:37;;;;;;;5.90;2.90;;;;;;;24.43;36.36;100630.20;3569629;81;98722;-80
2022/06/05 17:09:38;;;;;;;4.72;3.15;;;;;;;24.33;36.02;100634.86;3543472;81;98718;-81
2022/06/05 17:14:48;;;;;;;7.67;3.02;;;;;;;24.17;35.98;100637.33;3591473;81;99240;-81
2022/06/05 17:20:02;;;;;;;7.50;3.70;;;;;;;24.09;36.23;100643.07;3585487;81;99334;-81
2022/06/05 17:25:32;;;;;;;6.10;3.13;;;;;;;24.00;36.43;100639.45;3578165;81;99080;-80
2022/06/05 17:31:13;;;;;;;6.12;3.12;;;;;;;23.85;36.07;100636.41;3594315;81;98627;-81
2022/06/05 17:36:44;;;;;;;4.95;2.72;;;;;;;23.76;36.32;100626.52;3605730;81;98532;-80
2022/06/05 17:41:50;;;;;;;6.00;2.60;;;;;;;23.63;36.14;100628.65;3586465;81;97843;-80
2022/06/05 17:46:59;;;;;;;6.03;2.55;;;;;;;23.52;36.14;100632.49;3591702;81;99109;-80
2022/06/05 17:52:00;;;;;;;4.58;2.95;;;;;;;23.38;35.79;100619.61;3623680;81;98875;-80
2022/06/05 17:57:09;;;;;;;5.03;2.72;;;;;;;23.25;36.32;100607.05;3601246;81;99337;-80
2022/06/05 18:02:21;;;;;;;6.17;2.90;;;;;;;23.16;36.87;100599.94;3603714;80;99129;-80
2022/06/05 18:07:40;;;;;;;6.10;2.80;;;;;;;23.02;37.61;100611.70;3620296;80;98458;-80
2022/06/05 18:12:42;;;;;;;5.37;2.45;;;;;;;22.89;37.17;100602.55;3605587;81;31701;-80
2022/06/05 18:17:43;;;;;;;6.42;2.85;;;;;;;22.75;37.19;100593.25;3608942;81;98928;-80
2022/06/05 18:22:52;;;;;;;5.35;3.15;;;;;;;22.61;37.70;100597.19;3599407;80;99033;-80
2022/06/05 18:28:03;;;;;;;6.25;2.67;;;;;;;22.46;38.28;100603.13;3587141;81;99220;-80
2022/06/05 18:33:10;;;;;;;5.85;2.65;;;;;;;22.28;38.58;100593.88;3610177;81;99324;-80
2022/06/05 18:38:19;;;;;;;5.72;2.75;;;;;;;22.09;38.79;100592.73;3614338;80;99182;-80
2022/06/05 18:43:31;;;;;;;5.47;2.58;;;;;;;21.94;39.24;100595.83;3601007;81;98841;-80
2022/06/05 18:48:36;;;;;;;6.37;2.70;;;;;;;21.85;39.86;100594.34;3597593;81;98716;-81
2022/06/05 18:53:39;;;;;;;6.80;3.15;;;;;;;21.70;39.81;100601.62;3602328;81;98816;-80
2022/06/05 18:58:42;;;;;;;6.08;2.90;;;;;;;21.48;40.60;100601.45;3602053;80;98738;-80
2022/06/05 19:03:44;;;;;;;5.25;2.50;;;;;;;21.30;40.14;100604.02;3596653;81;98814;-80
2022/06/05 19:08:45;;;;;;;6.60;2.67;;;;;;;21.16;40.60;100610.05;3601116;80;98851;-81
2022/06/05 19:14:06;;;;;;;6.85;2.70;;;;;;;20.97;40.77;100608.79;3588234;80;99172;-80
2022/06/05 19:19:18;;;;;;;6.37;3.15;;;;;;;20.79;40.89;100609.87;3580157;81;98488;-80
2022/06/05 19:24:32;;;;;;;3.83;2.35;;;;;;;20.62;40.84;100611.15;3578871;80;98593;-81
2022/06/05 19:29:40;;;;;;;6.60;2.67;;;;;;;20.45;41.05;100609.61;3575126;81;98634;-81
2022/06/05 19:35:02;;;;;;;4.92;2.67;;;;;;;20.32;40.94;100612.96;3580358;81;98756;-80
2022/06/05 19:40:30;;;;;;;4.42;2.55;;;;;;;20.21;41.13;100616.01;3508490;81;98992;-80
2022/06/05 19:45:37;;;;;;;5.33;2.92;;;;;;;20.10;41.28;100619.68;3579395;81;99113;-81
2022/06/05 19:51:04;;;;;;;5.22;2.52;;;;;;;19.91;41.21;100616.34;3529437;81;99456;-81
2022/06/05 19:56:09;;;;;;;5.50;2.80;;;;;;;19.79;41.42;100610.65;3525343;81;98810;-81
2022/06/05 20:01:25;;;;;;;5.62;2.50;;;;;;;19.60;41.61;100612.87;3534474;80;98642;-82
2022/06/05 20:06:44;;;;;;;8.38;3.08;;;;;;;19.47;41.76;100615.57;3532367;81;99479;-81
2022/06/05 20:12:16;;;;;;;4.58;2.33;;;;;;;19.35;42.00;100619.00;3545747;81;98624;-81
2022/06/05 20:17:24;;;;;;;4.90;2.42;;;;;;;19.21;42.21;100613.73;3543522;81;99050;-82
2022/06/05 20:22:49;;;;;;;6.45;2.80;;;;;;;19.10;42.57;100618.72;3538906;81;98760;-81
2022/06/05 20:28:17;;;;;;;6.53;2.55;;;;;;;19.00;42.80;100618.92;3535627;81;98813;-81
2022/06/05 20:33:26;;;;;;;6.47;2.98;;;;;;;18.87;43.14;100608.23;3527839;81;99223;-81
2022/06/05 20:38:50;;;;;;;6.28;2.52;;;;;;;18.74;43.31;100605.92;3519427;82;98897;-83
2022/06/05 20:43:54;;;;;;;5.53;2.77;;;;;;;18.62;43.70;100624.05;3517900;82;98742;-84
2022/06/05 20:49:01;;;;;;;6.05;2.70;;;;;;;18.53;44.02;100621.02;3522743;82;98784;-83
2022/06/05 20:54:06;;;;;;;6.03;2.52;;;;;;;18.41;44.49;100625.02;3526307;82;98625;-83
2022/06/05 20:59:17;;;;;;;8.27;2.67;;;;;;;18.28;44.86;100618.47;3520560;81;98672;-84
2022/06/05 21:09:46;;;;;;;11.73;3.90;;;;;;;18.06;45.89;100631.17;3536080;81;99006;-83
2022/06/05 21:20:10;;;;;;;11.73;5.15;;;;;;;17.86;46.37;100625.52;3524192;81;99400;-88
2022/06/05 21:25:20;;;;;;;11.88;4.55;;;;;;;17.78;46.80;100635.80;3530339;81;31711;-88
2022/06/05 21:30:28;;;;;;;7.25;2.98;;;;;;;17.64;46.98;100631.81;3542283;81;98650;-88
2022/06/05 21:35:51;;;;;;;8.50;2.98;;;;;;;17.53;47.38;100622.83;3563591;81;98680;-87
2022/06/05 21:41:36;;;;;;;6.77;2.67;;;;;;;17.41;47.62;100622.80;3537976;81;99460;-87
2022/06/05 21:46:40;;;;;;;5.05;2.42;;;;;;;17.30;47.91;100631.86;3571442;80;98912;-87
2022/06/05 21:51:43;;;;;;;8.95;3.35;;;;;;;17.21;48.22;100642.70;3583263;81;98935;-87
2022/06/05 21:56:48;;;;;;;8.35;3.17;;;;;;;17.12;48.35;100648.58;3559388;81;99122;-87
2022/06/05 22:01:49;;;;;;;5.30;2.63;;;;;;;17.00;48.66;100652.69;3537221;81;99210;-87
2022/06/05 22:06:50;;;;;;;6.35;2.72;;;;;;;16.91;49.14;100642.67;3549820;80;98959;-87
2022/06/05 22:11:51;;;;;;;6.78;2.87;;;;;;;16.84;49.47;100649.69;3572405;80;98777;-87
2022/06/05 22:16:58;;;;;;;8.33;3.53;;;;;;;16.77;49.78;100644.21;3545144;81;98671;-88
2022/06/05 22:22:12;;;;;;;8.65;2.95;;;;;;;16.69;49.93;100648.28;3560196;81;98847;-88
2022/06/05 22:27:20;;;;;;;7.20;3.40;;;;;;;16.60;50.42;100634.66;3573074;80;98836;-88
2022/06/05 22:32:21;;;;;;;6.37;2.87;;;;;;;16.50;50.75;100628.02;3573176;81;99355;-88
2022/06/05 22:37:22;;;;;;;5.33;2.83;;;;;;;16.45;51.12;100623.52;3541097;81;98486;-88
2022/06/05 22:42:24;;;;;;;7.30;3.30;;;;;;;16.38;51.37;100619.36;3549397;81;98588;-87
2022/06/05 22:47:26;;;;;;;4.70;2.58;;;;;;;16.30;51.68;100613.08;3584126;80;98778;-87
2022/06/05 22:52:27;;;;;;;6.53;3.12;;;;;;;16.24;52.04;100608.41;3580446;81;99194;-87
2022/06/05 22:57:28;;;;;;;6.15;2.95;;;;;;;16.17;52.28;100595.36;3585845;80;98849;-87
2022/06/05 23:02:29;;;;;;;5.83;2.60;;;;;;;16.10;52.79;100597.41;3583733;80;98734;-88
2022/06/05 23:07:30;;;;;;;6.30;2.90;;;;;;;16.04;53.03;100593.49;3568017;81;98877;-87
2022/06/05 23:12:32;;;;;;;6.93;2.87;;;;;;;15.96;53.48;100588.59;3591103;81;28481;-88
2022/06/05 23:17:33;;;;;;;7.17;3.47;;;;;;;15.90;53.62;100587.45;3622613;80;98872;-88
2022/06/05 23:22:35;;;;;;;6.00;2.93;;;;;;;15.85;53.91;100585.70;3621777;80;98811;-87
2022/06/05 23:27:36;;;;;;;6.57;2.80;;;;;;;15.79;54.18;100577.04;3628599;80;99174;-88
2022/06/05 23:32:37;;;;;;;7.77;3.47;;;;;;;15.73;54.60;100572.32;3624933;80;99096;-87
2022/06/05 23:37:38;;;;;;;6.83;3.23;;;;;;;15.68;54.90;100566.62;3627704;80;98781;-87
2022/06/05 23:42:39;;;;;;;7.07;3.37;;;;;;;15.64;55.13;100567.23;3600919;80;27955;-86
2022/06/05 23:47:40;;;;;;;5.60;2.93;;;;;;;15.62;55.40;100571.61;3615319;80;98820;-87
2022/06/05 23:52:41;;;;;;;5.97;3.00;;;;;;;15.58;55.58;100559.16;3608022;80;99239;-87
2022/06/05 23:57:43;;;;;;;6.90;3.10;;;;;;;15.55;55.61;100556.41;3616659;80;99247;-87
